Time;durP1;ratioP1;P1;durP2;ratioP2;P2;SDS_P1;SDS_P2;PMS_P1;PMS_P2;Temp;Humidity;BMP_temperature;BMP_pressure;BME280_temperature;BME280_humidity;BME280_pressure;Samples;Min_cycle;Max_cycle;Signal;HPM_P1;HPM_P2
2023/01/04 00:01:36;;;;;;;13.77;8.53;;;5.20;99.90;;;;;;4934275;29;21042;-70
2023/01/04 00:04:05;;;;;;;11.47;9.13;;;5.20;99.90;;;;;;4933798;29;20491;-80
2023/01/04 00:06:32;;;;;;;12.03;8.03;;;5.20;99.90;;;;;;4934865;29;20975;-73
2023/01/04 00:08:59;;;;;;;14.13;8.67;;;4.90;99.90;;;;;;4929370;29;20803;-72
2023/01/04 00:11:26;;;;;;;13.87;8.63;;;4.80;99.90;;;;;;4926296;29;20457;-72
2023/01/04 00:13:56;;;;;;;16.80;8.80;;;4.80;99.90;;;;;;4924961;29;20455;-74
2023/01/04 00:16:25;;;;;;;13.20;8.60;;;4.80;99.90;;;;;;4926389;29;20464;-72
2023/01/04 00:18:53;;;;;;;9.80;7.63;;;4.80;99.90;;;;;;4925818;29;20458;-74
2023/01/04 00:21:23;;;;;;;13.27;9.37;;;4.70;99.90;;;;;;4924507;29;20485;-74
2023/01/04 00:23:52;;;;;;;10.00;7.90;;;4.70;99.90;;;;;;4922421;29;20451;-72
2023/01/04 00:26:21;;;;;;;8.00;6.00;;;4.80;99.90;;;;;;4921960;29;20494;-72
2023/01/04 00:28:48;;;;;;;11.70;7.23;;;4.90;99.90;;;;;;4921838;29;20484;-72
2023/01/04 00:31:15;;;;;;;8.60;6.67;;;4.80;99.90;;;;;;4921576;29;20448;-74
2023/01/04 00:33:42;;;;;;;10.97;7.90;;;4.70;99.90;;;;;;4923135;29;20452;-74
2023/01/04 00:36:11;;;;;;;13.47;8.40;;;4.80;99.90;;;;;;4921863;29;20456;-77
2023/01/04 00:38:40;;;;;;;10.83;7.07;;;4.70;99.90;;;;;;4925564;29;20485;-72
2023/01/04 00:41:08;;;;;;;10.90;7.63;;;4.60;99.90;;;;;;4923616;29;20442;-79
2023/01/04 00:43:35;;;;;;;10.80;8.00;;;4.60;99.90;;;;;;4918676;29;20969;-71
2023/01/04 00:46:02;;;;;;;11.77;8.37;;;4.60;99.90;;;;;;4913891;29;20920;-73
2023/01/04 00:48:29;;;;;;;10.33;7.83;;;4.60;99.90;;;;;;4913883;29;20548;-74
2023/01/04 00:50:56;;;;;;;9.53;7.33;;;4.50;99.90;;;;;;4931212;29;20555;-75
2023/01/04 00:53:23;;;;;;;11.10;9.40;;;4.50;99.90;;;;;;4932548;29;20795;-72
2023/01/04 00:55:51;;;;;;;14.43;9.10;;;4.60;99.90;;;;;;4932721;29;20700;-75
2023/01/04 00:58:18;;;;;;;10.53;7.17;;;4.50;99.90;;;;;;4932520;29;20454;-75
2023/01/04 01:00:44;;;;;;;11.70;8.70;;;4.40;99.90;;;;;;4932671;29;20452;-78
2023/01/04 01:03:11;;;;;;;9.67;7.40;;;4.60;99.90;;;;;;4932345;29;20452;-75
2023/01/04 01:05:38;;;;;;;9.90;7.80;;;4.70;99.90;;;;;;4931655;29;20494;-76
2023/01/04 01:10:46;;;;;;;14.10;9.83;;;4.60;99.90;;;;;;4931436;29;20464;-75
2023/01/04 01:13:14;;;;;;;12.70;9.77;;;4.70;99.90;;;;;;4932554;29;20448;-72
2023/01/04 01:15:41;;;;;;;13.97;9.60;;;4.60;99.90;;;;;;4932243;29;20444;-73
2023/01/04 01:18:07;;;;;;;13.23;9.63;;;4.50;99.90;;;;;;4932046;29;20530;-74
2023/01/04 01:20:34;;;;;;;12.00;9.20;;;4.40;99.90;;;;;;4932132;29;20462;-71
2023/01/04 01:23:01;;;;;;;13.40;9.70;;;4.40;99.90;;;;;;4930730;29;20474;-73
2023/01/04 01:25:28;;;;;;;10.90;8.10;;;4.30;99.90;;;;;;4932172;29;20600;-76
2023/01/04 01:27:55;;;;;;;15.43;10.30;;;4.30;99.90;;;;;;4931637;29;20482;-72
2023/01/04 01:30:23;;;;;;;17.80;10.60;;;4.40;99.90;;;;;;4932075;29;20614;-76
2023/01/04 01:32:49;;;;;;;15.70;10.20;;;4.30;99.90;;;;;;4931581;29;20470;-74
2023/01/04 01:35:16;;;;;;;13.33;10.70;;;4.30;99.90;;;;;;4931618;29;20453;-72
2023/01/04 01:37:43;;;;;;;15.83;10.20;;;4.20;99.90;;;;;;4930509;29;20464;-74
2023/01/04 01:40:11;;;;;;;15.63;9.80;;;4.20;99.90;;;;;;4931900;29;20458;-72
2023/01/04 01:42:38;;;;;;;13.63;9.20;;;4.20;99.90;;;;;;4931670;29;20440;-72
2023/01/04 01:45:10;;;;;;;11.80;8.67;;;4.10;99.90;;;;;;4931876;29;20842;-72
2023/01/04 01:47:41;;;;;;;11.30;7.57;;;4.00;99.90;;;;;;4932057;29;20452;-72
2023/01/04 01:50:20;;;;;;;13.70;9.10;;;3.90;99.90;;;;;;4931588;29;20440;-72
2023/01/04 01:52:48;;;;;;;14.00;10.33;;;3.90;99.90;;;;;;4930523;29;20451;-72
2023/01/04 01:55:16;;;;;;;16.17;10.83;;;3.90;99.90;;;;;;4931040;29;20467;-72
2023/01/04 01:57:45;;;;;;;20.60;13.07;;;3.90;99.90;;;;;;4931834;29;20539;-73
2023/01/04 02:00:14;;;;;;;20.03;10.70;;;3.90;99.90;;;;;;4931007;29;20463;-71
2023/01/04 02:02:48;;;;;;;21.63;12.37;;;3.80;99.90;;;;;;4931338;29;20848;-71
2023/01/04 02:05:17;;;;;;;18.17;11.07;;;3.80;99.90;;;;;;4931537;29;20855;-71
2023/01/04 02:07:45;;;;;;;18.20;10.20;;;3.70;99.90;;;;;;4931037;29;20462;-73
2023/01/04 02:10:13;;;;;;;16.97;10.33;;;3.60;99.90;;;;;;4931151;29;20845;-74
2023/01/04 02:12:40;;;;;;;15.43;10.27;;;3.50;99.90;;;;;;4929954;29;20827;-72
2023/01/04 02:15:08;;;;;;;20.10;12.37;;;3.50;99.90;;;;;;4931075;29;20443;-72
2023/01/04 02:17:40;;;;;;;18.47;10.93;;;3.40;99.90;;;;;;4930625;29;20471;-71
2023/01/04 02:20:29;;;;;;;17.97;11.17;;;3.40;99.90;;;;;;4930659;29;20448;-71
2023/01/04 02:23:32;;;;;;;25.80;14.97;;;3.40;99.90;;;;;;4931382;29;20467;-71
2023/01/04 02:26:45;;;;;;;24.30;12.87;;;3.30;99.90;;;;;;4931074;29;20491;-71
2023/01/04 02:29:35;;;;;;;26.20;13.97;;;3.30;99.90;;;;;;4872633;29;20500;-76
2023/01/04 02:32:12;;;;;;;30.03;14.97;;;3.40;99.90;;;;;;4874504;29;20455;-93
2023/01/04 02:34:45;;;;;;;25.13;13.73;;;3.40;99.90;;;;;;4883911;29;20570;-90
2023/01/04 02:37:18;;;;;;;21.20;12.70;;;3.40;99.90;;;;;;4881781;29;20486;-92
2023/01/04 02:39:52;;;;;;;19.20;11.93;;;3.60;99.90;;;;;;4876797;29;20980;-92
2023/01/04 02:42:24;;;;;;;25.73;12.87;;;3.80;99.90;;;;;;4878103;29;20462;-91
2023/01/04 02:44:58;;;;;;;20.97;11.20;;;3.80;99.90;;;;;;4880156;29;20475;-92
2023/01/04 02:50:34;;;;;;;16.17;10.37;;;3.60;99.90;;;;;;4876574;29;21013;-92
2023/01/04 02:53:05;;;;;;;16.23;11.10;;;3.60;99.90;;;;;;4879608;29;20994;-93
2023/01/04 02:55:47;;;;;;;17.37;11.10;;;3.60;99.90;;;;;;4890467;29;20512;-91
2023/01/04 02:58:28;;;;;;;17.07;10.73;;;3.60;99.90;;;;;;4880797;29;20454;-92
2023/01/04 03:06:43;;;;;;;18.40;10.00;;;3.90;99.90;;;;;;4936319;29;20491;-92
2023/01/04 03:09:19;;;;;;;18.83;10.40;;;4.00;99.90;;;;;;4935627;29;20807;-94
2023/01/04 03:14:39;;;;;;;19.67;11.50;;;4.00;99.90;;;;;;4939118;29;20581;-91
2023/01/04 03:17:09;;;;;;;18.00;10.40;;;4.00;99.90;;;;;;4934512;29;21003;-90
2023/01/04 03:19:53;;;;;;;17.00;10.83;;;4.20;99.90;;;;;;4933880;29;20959;-92
2023/01/04 03:36:27;;;;;;;17.00;10.97;;;3.90;99.90;;;;;;4938569;29;20438;-92
2023/01/04 03:50:20;;;;;;;18.77;12.53;;;3.90;99.90;;;;;;4938367;29;20523;-91
2023/01/04 03:52:49;;;;;;;20.70;12.20;;;3.80;99.90;;;;;;4937939;29;20608;-93
2023/01/04 03:55:17;;;;;;;23.00;12.27;;;3.70;99.90;;;;;;4937821;29;20455;-91
2023/01/04 03:57:45;;;;;;;21.50;12.30;;;3.70;99.90;;;;;;4938396;29;20440;-92
2023/01/04 04:00:16;;;;;;;23.77;12.87;;;3.80;99.90;;;;;;4939591;29;20444;-92
2023/01/04 04:02:47;;;;;;;20.93;12.23;;;3.80;99.90;;;;;;4939070;29;20471;-91
2023/01/04 04:10:49;;;;;;;15.87;10.87;;;3.80;99.90;;;;;;4935927;29;20542;-92
2023/01/04 04:13:15;;;;;;;17.83;11.40;;;3.80;99.90;;;;;;4935241;29;20945;-91
2023/01/04 04:15:42;;;;;;;15.13;9.03;;;3.80;99.90;;;;;;4935630;29;20452;-92
2023/01/04 04:18:09;;;;;;;14.10;10.20;;;3.70;99.90;;;;;;4935403;29;20451;-87
2023/01/04 04:20:36;;;;;;;20.90;10.20;;;3.80;99.90;;;;;;4934901;29;20557;-88
2023/01/04 04:23:05;;;;;;;17.57;10.40;;;3.80;99.90;;;;;;4935256;29;20459;-91
2023/01/04 04:25:31;;;;;;;13.37;9.23;;;3.70;99.90;;;;;;4935726;29;20451;-85
2023/01/04 04:27:58;;;;;;;11.80;7.53;;;3.80;99.90;;;;;;4935092;29;20483;-92
2023/01/04 04:30:25;;;;;;;14.10;8.83;;;3.90;99.90;;;;;;4935873;29;20543;-90
2023/01/04 04:32:52;;;;;;;12.07;7.60;;;3.80;99.90;;;;;;4935983;29;20527;-91
2023/01/04 04:35:18;;;;;;;8.20;6.70;;;3.80;99.90;;;;;;4935440;29;20643;-90
2023/01/04 04:37:45;;;;;;;11.53;7.20;;;3.70;99.90;;;;;;4934518;29;20464;-94
2023/01/04 04:41:37;;;;;;;11.13;6.40;;;3.60;99.90;;;;;;4935532;29;20447;-90
2023/01/04 04:43:07;;;;;;;9.77;7.23;;;3.70;99.90;;;;;;4934883;29;20444;-90
2023/01/04 04:45:34;;;;;;;9.90;7.10;;;3.50;99.90;;;;;;4935519;29;20438;-91
2023/01/04 04:48:01;;;;;;;6.83;5.03;;;3.40;99.90;;;;;;4935429;29;20455;-89
2023/01/04 04:50:28;;;;;;;9.27;5.67;;;3.40;99.90;;;;;;4937124;29;20463;-89
2023/01/04 04:52:55;;;;;;;8.30;5.20;;;3.50;99.90;;;;;;4934826;29;20467;-88
2023/01/04 04:55:23;;;;;;;8.00;4.17;;;3.50;99.90;;;;;;4936716;29;20440;-89
2023/01/04 04:57:49;;;;;;;6.10;4.37;;;3.40;99.90;;;;;;4936502;29;20954;-90
2023/01/04 05:00:17;;;;;;;6.37;4.47;;;3.40;99.90;;;;;;4936369;29;20452;-89
2023/01/04 05:02:43;;;;;;;6.80;4.57;;;3.40;99.90;;;;;;4936296;29;20455;-92
2023/01/04 05:05:10;;;;;;;9.23;5.53;;;3.40;99.90;;;;;;4937570;29;20470;-90
2023/01/04 05:07:37;;;;;;;6.17;4.70;;;3.40;99.90;;;;;;4935269;29;21010;-91
2023/01/04 05:10:04;;;;;;;8.10;3.90;;;3.40;99.90;;;;;;4936755;29;20836;-90
2023/01/04 05:15:26;;;;;;;5.53;3.80;;;3.50;99.90;;;;;;4902933;29;20452;-91
2023/01/04 05:17:53;;;;;;;4.90;3.80;;;3.40;99.90;;;;;;4942187;29;20451;-87
2023/01/04 05:20:20;;;;;;;6.43;5.17;;;3.40;99.90;;;;;;4948437;29;20504;-89
2023/01/04 05:22:47;;;;;;;5.17;3.63;;;3.40;99.90;;;;;;4949940;29;20455;-90
2023/01/04 05:25:14;;;;;;;4.97;3.70;;;3.60;99.90;;;;;;4947136;29;20486;-91
2023/01/04 05:27:42;;;;;;;5.10;3.83;;;3.60;99.90;;;;;;4943194;29;20865;-91
2023/01/04 05:32:55;;;;;;;5.30;3.70;;;3.50;99.90;;;;;;4937773;29;20487;-88
2023/01/04 05:35:22;;;;;;;4.30;3.20;;;3.50;99.90;;;;;;4936046;29;20456;-90
2023/01/04 05:37:49;;;;;;;4.13;3.33;;;3.60;99.90;;;;;;4936970;29;20971;-88
2023/01/04 05:40:16;;;;;;;5.77;3.30;;;3.60;99.90;;;;;;4936536;29;20455;-91
2023/01/04 05:42:44;;;;;;;4.80;3.73;;;3.60;99.90;;;;;;4922715;29;20479;-92
2023/01/04 05:45:11;;;;;;;5.47;3.77;;;3.50;99.90;;;;;;4916452;29;20459;-92
2023/01/04 05:47:38;;;;;;;6.53;3.17;;;3.50;99.90;;;;;;4916243;29;20499;-91
2023/01/04 05:50:06;;;;;;;4.17;3.70;;;3.60;99.90;;;;;;4916633;29;20471;-93
2023/01/04 05:52:33;;;;;;;2.90;2.60;;;3.70;99.90;;;;;;4916960;29;20634;-92
2023/01/04 05:55:00;;;;;;;4.37;3.07;;;3.60;99.90;;;;;;4918712;29;20440;-91
2023/01/04 05:57:27;;;;;;;3.33;2.97;;;3.70;99.90;;;;;;4927662;29;20476;-90
2023/01/04 05:59:55;;;;;;;4.53;2.83;;;3.60;99.90;;;;;;4946096;29;20436;-90
2023/01/04 06:02:24;;;;;;;4.13;3.20;;;3.60;99.90;;;;;;4949541;29;20680;-91
2023/01/04 06:04:51;;;;;;;3.40;3.10;;;3.50;99.90;;;;;;4951213;29;20436;-92
2023/01/04 06:07:18;;;;;;;3.00;2.70;;;3.50;99.90;;;;;;4941524;29;21023;-91
2023/01/04 06:09:46;;;;;;;3.77;3.00;;;3.50;99.90;;;;;;4943439;29;20471;-91
2023/01/04 06:12:12;;;;;;;5.57;3.03;;;3.60;99.90;;;;;;4944157;29;20452;-90
2023/01/04 06:14:40;;;;;;;3.33;3.03;;;3.70;99.90;;;;;;4939885;29;20479;-90
2023/01/04 06:17:08;;;;;;;3.10;2.80;;;4.00;99.90;;;;;;4941634;29;20458;-92
2023/01/04 06:19:35;;;;;;;3.47;2.57;;;3.90;99.90;;;;;;4935603;29;20452;-93
2023/01/04 06:22:02;;;;;;;4.13;3.40;;;4.00;99.90;;;;;;4934599;29;20446;-91
2023/01/04 06:24:30;;;;;;;3.27;2.93;;;4.10;99.90;;;;;;4936041;29;20480;-90
2023/01/04 06:32:29;;;;;;;5.80;3.17;;;4.20;99.90;;;;;;5493814;23;20569;-91
2023/01/04 06:47:48;;;;;;;3.10;2.63;;;4.50;99.90;;;;;;4951885;28;21008;-89
2023/01/04 07:18:45;;;;;;;3.00;2.40;;;4.10;99.90;;;;;;5567414;23;20502;-88
2023/01/04 07:31:34;;;;;;;3.00;2.70;;;4.30;99.90;;;;;;5602347;23;21027;-90
2023/01/04 07:34:02;;;;;;;3.73;2.30;;;4.20;99.90;;;;;;4944334;29;20458;-93
2023/01/04 07:36:29;;;;;;;4.00;2.53;;;4.30;99.90;;;;;;4949760;29;20454;-94
2023/01/04 07:38:55;;;;;;;2.37;2.17;;;4.20;99.90;;;;;;4951885;29;20451;-89
2023/01/04 07:41:22;;;;;;;2.80;2.60;;;4.30;99.90;;;;;;4948451;29;20454;-90
2023/01/04 07:43:49;;;;;;;2.70;2.50;;;4.30;99.90;;;;;;4954490;28;20458;-94
2023/01/04 07:46:16;;;;;;;2.43;2.23;;;4.30;99.90;;;;;;4953455;28;20456;-93
2023/01/04 07:48:43;;;;;;;2.77;2.40;;;4.30;99.90;;;;;;5064750;23;21478;-86
2023/01/04 07:51:11;;;;;;;4.20;2.70;;;4.40;99.90;;;;;;4940775;29;20548;-94
2023/01/04 07:53:38;;;;;;;3.17;2.17;;;4.40;99.90;;;;;;4943454;29;20520;-92
2023/01/04 07:58:40;;;;;;;2.60;2.20;;;4.50;99.90;;;;;;5359103;23;20506;-93
2023/01/04 08:01:08;;;;;;;3.97;2.30;;;4.50;99.90;;;;;;4958476;28;20456;-91
2023/01/04 08:03:35;;;;;;;2.20;1.73;;;4.40;99.90;;;;;;4954986;29;20819;-91
2023/01/04 08:06:03;;;;;;;3.27;2.10;;;4.50;99.90;;;;;;4936859;29;20819;-89
2023/01/04 08:08:31;;;;;;;4.03;2.37;;;4.50;99.90;;;;;;4944872;29;20495;-91
2023/01/04 08:11:01;;;;;;;2.73;2.00;;;4.50;99.90;;;;;;4915791;29;20465;-83
2023/01/04 08:13:28;;;;;;;2.90;2.57;;;4.60;99.90;;;;;;4915609;29;20467;-84
2023/01/04 08:15:55;;;;;;;3.20;2.40;;;4.70;99.90;;;;;;4914313;29;20453;-83
2023/01/04 08:18:22;;;;;;;2.67;2.13;;;4.70;99.90;;;;;;4914792;29;20816;-85
2023/01/04 08:20:49;;;;;;;4.20;2.67;;;4.80;99.90;;;;;;4917008;29;20449;-91
2023/01/04 08:23:16;;;;;;;3.53;2.53;;;4.70;99.90;;;;;;5059469;23;20507;-91
2023/01/04 08:25:44;;;;;;;2.67;2.47;;;4.90;99.90;;;;;;4960936;29;20455;-88
2023/01/04 08:28:11;;;;;;;3.17;2.30;;;5.00;99.90;;;;;;4958177;29;20499;-92
2023/01/04 08:30:38;;;;;;;2.70;2.50;;;5.00;99.90;;;;;;4959804;28;20447;-92
2023/01/04 08:33:13;;;;;;;2.87;2.63;;;5.10;99.90;;;;;;4942014;29;20461;-82
2023/01/04 08:35:40;;;;;;;3.43;2.00;;;5.10;99.90;;;;;;4950650;29;20451;-78
2023/01/04 08:38:06;;;;;;;2.93;2.20;;;5.20;99.90;;;;;;4949832;29;20442;-82
2023/01/04 08:40:33;;;;;;;4.43;2.93;;;5.30;99.90;;;;;;4948351;29;20458;-78
2023/01/04 08:43:01;;;;;;;3.00;2.30;;;5.40;99.90;;;;;;4950844;29;20751;-85
2023/01/04 08:45:28;;;;;;;3.40;2.27;;;5.50;99.90;;;;;;4949457;29;20469;-85
2023/01/04 08:47:55;;;;;;;2.47;2.00;;;5.60;99.90;;;;;;4948184;29;20553;-81
2023/01/04 08:50:22;;;;;;;4.40;2.30;;;5.80;99.90;;;;;;4950752;29;20474;-88
2023/01/04 08:52:48;;;;;;;2.93;1.77;;;5.90;99.90;;;;;;4948826;29;20455;-86
2023/01/04 08:55:15;;;;;;;4.37;3.03;;;5.90;99.90;;;;;;4951001;29;20587;-85
2023/01/04 08:57:42;;;;;;;2.07;1.73;;;6.00;99.90;;;;;;4952751;29;20459;-82
2023/01/04 09:00:12;;;;;;;2.53;1.87;;;6.20;99.90;;;;;;4950593;29;21085;-79
2023/01/04 09:02:38;;;;;;;2.03;1.83;;;6.30;99.90;;;;;;4952525;29;20550;-87
2023/01/04 09:05:06;;;;;;;3.40;2.57;;;6.20;99.90;;;;;;4953325;29;20543;-93
2023/01/04 09:07:33;;;;;;;4.07;2.07;;;6.30;99.90;;;;;;4960029;29;20491;-91
2023/01/04 09:10:00;;;;;;;2.27;2.07;;;6.40;99.90;;;;;;4946974;29;20555;-92
2023/01/04 09:12:27;;;;;;;2.50;1.93;;;6.30;99.90;;;;;;4934275;29;20436;-80
2023/01/04 09:14:54;;;;;;;2.63;1.83;;;6.40;99.90;;;;;;4934018;29;20447;-88
2023/01/04 09:17:23;;;;;;;2.20;1.90;;;6.40;99.90;;;;;;4932730;29;20491;-85
2023/01/04 09:19:50;;;;;;;3.07;2.10;;;6.40;99.90;;;;;;4933985;29;20487;-82
2023/01/04 09:22:16;;;;;;;2.13;1.60;;;6.40;99.90;;;;;;4936912;29;20444;-87
2023/01/04 09:24:43;;;;;;;2.20;1.70;;;6.50;99.90;;;;;;4933088;29;20483;-89
2023/01/04 09:27:10;;;;;;;2.60;2.40;;;6.40;99.90;;;;;;4932316;29;20487;-85
2023/01/04 09:29:37;;;;;;;2.80;2.60;;;6.50;99.90;;;;;;4932362;29;20451;-79
2023/01/04 09:32:03;;;;;;;2.30;2.10;;;6.60;99.90;;;;;;4933751;29;20459;-91
2023/01/04 09:34:32;;;;;;;2.40;2.17;;;6.70;99.90;;;;;;4934505;29;20452;-86
2023/01/04 09:36:58;;;;;;;3.00;2.53;;;6.80;99.90;;;;;;4934411;29;20436;-89
2023/01/04 09:39:29;;;;;;;3.30;2.40;;;6.90;99.90;;;;;;4934155;29;20984;-84
2023/01/04 09:41:57;;;;;;;2.13;1.70;;;7.00;99.90;;;;;;4934969;29;20472;-90
2023/01/04 09:44:34;;;;;;;2.37;2.17;;;7.20;99.90;;;;;;4935696;29;20460;-92
2023/01/04 09:47:06;;;;;;;1.60;1.50;;;7.40;99.90;;;;;;4934192;29;20440;-86
2023/01/04 09:49:41;;;;;;;1.87;1.70;;;7.60;99.90;;;;;;4937611;29;20531;-88
2023/01/04 09:52:16;;;;;;;3.23;1.93;;;7.60;99.90;;;;;;4936658;29;20475;-87
2023/01/04 09:54:47;;;;;;;2.00;1.70;;;7.50;99.90;;;;;;4946665;29;20443;-88
2023/01/04 09:57:22;;;;;;;1.93;1.73;;;7.70;99.90;;;;;;4944435;29;20451;-91
2023/01/04 09:59:54;;;;;;;1.93;1.73;;;7.60;99.90;;;;;;4942831;29;20452;-87
2023/01/04 10:02:29;;;;;;;2.50;2.30;;;7.80;99.90;;;;;;4946330;29;20948;-88
2023/01/04 10:05:01;;;;;;;3.27;2.03;;;8.00;99.90;;;;;;4947280;29;20432;-89
2023/01/04 10:07:31;;;;;;;2.40;1.87;;;7.90;99.90;;;;;;4941406;29;20969;-86
2023/01/04 10:09:59;;;;;;;1.90;1.63;;;8.00;99.90;;;;;;4939664;29;20472;-91
2023/01/04 10:12:48;;;;;;;1.57;1.43;;;8.20;99.90;;;;;;4943476;29;20448;-90
2023/01/04 10:15:25;;;;;;;5.07;3.63;;;8.20;99.90;;;;;;4943767;29;20456;-88
2023/01/04 10:18:04;;;;;;;1.70;1.30;;;8.20;99.90;;;;;;4946710;29;20709;-90
2023/01/04 10:20:57;;;;;;;2.43;1.67;;;8.10;99.90;;;;;;4946863;29;20458;-88
2023/01/04 10:23:34;;;;;;;1.47;1.37;;;8.30;99.90;;;;;;4912877;29;20571;-86
2023/01/04 10:26:10;;;;;;;2.83;1.50;;;8.20;99.90;;;;;;4926063;29;20447;-82
2023/01/04 10:28:53;;;;;;;1.80;1.40;;;8.40;99.90;;;;;;4928920;29;20491;-91
2023/01/04 10:31:26;;;;;;;2.73;1.47;;;8.90;99.90;;;;;;4931611;29;20441;-84
2023/01/04 10:33:59;;;;;;;1.50;1.20;;;8.80;99.90;;;;;;4932254;29;20432;-86
2023/01/04 10:36:31;;;;;;;1.40;1.20;;;8.50;99.90;;;;;;4926870;29;20463;-88
2023/01/04 10:39:01;;;;;;;1.97;1.40;;;8.80;99.90;;;;;;4928075;29;20441;-86
2023/01/04 10:41:33;;;;;;;1.50;1.40;;;8.70;99.90;;;;;;4941270;29;20488;-85
2023/01/04 10:44:08;;;;;;;2.20;1.30;;;8.80;99.90;;;;;;4949957;29;20456;-92
2023/01/04 10:46:43;;;;;;;1.90;1.30;;;8.60;99.90;;;;;;4947672;29;20452;-91
2023/01/04 10:49:16;;;;;;;1.93;1.40;;;8.60;99.90;;;;;;4943955;29;20483;-90
2023/01/04 10:51:50;;;;;;;1.60;1.40;;;8.50;99.90;;;;;;4948991;29;20447;-88
2023/01/04 10:54:26;;;;;;;1.70;1.40;;;8.60;99.90;;;;;;4948777;29;20515;-89
2023/01/04 10:56:58;;;;;;;3.97;1.40;;;8.50;99.90;;;;;;4951552;29;20539;-90
2023/01/04 10:59:33;;;;;;;1.67;1.30;;;8.30;99.90;;;;;;4950470;29;20532;-86
2023/01/04 11:02:06;;;;;;;4.10;1.50;;;8.40;99.90;;;;;;4950661;29;20535;-85
2023/01/04 11:04:36;;;;;;;3.63;1.50;;;8.40;99.90;;;;;;4944452;29;20476;-83
2023/01/04 11:07:10;;;;;;;1.60;1.30;;;8.40;99.90;;;;;;4943244;29;20566;-91
2023/01/04 11:09:43;;;;;;;4.70;1.30;;;8.40;99.90;;;;;;4944502;29;20460;-87
2023/01/04 11:12:13;;;;;;;3.57;1.40;;;8.30;99.90;;;;;;4942666;29;20444;-89
2023/01/04 11:14:39;;;;;;;2.07;1.20;;;8.40;99.90;;;;;;4944853;29;20452;-88
2023/01/04 11:17:09;;;;;;;1.63;1.50;;;8.60;99.90;;;;;;4946433;29;20531;-91
2023/01/04 11:19:36;;;;;;;2.33;1.10;;;8.50;99.90;;;;;;4943674;29;20511;-91
2023/01/04 11:22:11;;;;;;;4.97;1.30;;;8.40;99.90;;;;;;4945699;29;20452;-88
2023/01/04 11:24:40;;;;;;;1.83;1.20;;;8.50;99.90;;;;;;4945057;29;20472;-89
2023/01/04 11:27:13;;;;;;;2.00;1.20;;;8.40;99.90;;;;;;4945402;29;20515;-89
2023/01/04 11:29:45;;;;;;;2.73;1.40;;;8.70;99.90;;;;;;4943359;29;20681;-88
2023/01/04 11:32:17;;;;;;;1.23;1.03;;;8.50;99.90;;;;;;4942757;29;20527;-91
2023/01/04 11:34:47;;;;;;;1.37;1.27;;;8.50;99.90;;;;;;4942496;29;20859;-88
2023/01/04 11:37:27;;;;;;;1.53;1.20;;;8.50;99.90;;;;;;4940900;29;20440;-87
2023/01/04 11:40:22;;;;;;;2.47;1.23;;;8.60;99.90;;;;;;4942202;29;20460;-85
2023/01/04 11:42:51;;;;;;;2.13;1.07;;;8.50;99.90;;;;;;4947799;29;20456;-88
2023/01/04 11:45:20;;;;;;;5.53;1.63;;;8.50;99.90;;;;;;4944760;29;20464;-90
2023/01/04 11:47:49;;;;;;;1.60;1.50;;;8.50;99.90;;;;;;4944617;29;20494;-87
2023/01/04 11:50:38;;;;;;;1.83;1.60;;;8.60;99.90;;;;;;4946076;29;20464;-83
2023/01/04 11:53:29;;;;;;;1.67;1.07;;;8.70;99.90;;;;;;4946324;29;20501;-86
2023/01/04 11:56:10;;;;;;;1.30;1.20;;;8.80;99.90;;;;;;4951326;29;20508;-80
2023/01/04 11:58:37;;;;;;;1.63;1.00;;;8.90;99.90;;;;;;4953293;29;20454;-83
2023/01/04 12:01:04;;;;;;;1.83;1.30;;;8.90;99.90;;;;;;4952155;29;20463;-84
2023/01/04 12:03:34;;;;;;;1.20;1.10;;;9.00;99.90;;;;;;4952582;29;20543;-85
2023/01/04 12:06:01;;;;;;;6.40;1.47;;;9.00;99.90;;;;;;4953892;29;20792;-81
2023/01/04 12:08:32;;;;;;;4.63;1.20;;;9.00;99.90;;;;;;4955044;29;20475;-80
2023/01/04 12:11:02;;;;;;;1.10;1.00;;;9.10;99.90;;;;;;4952997;29;20523;-80
2023/01/04 12:13:30;;;;;;;1.70;1.27;;;9.20;99.90;;;;;;4954005;29;20444;-82
2023/01/04 12:16:05;;;;;;;1.97;1.40;;;9.10;99.90;;;;;;4952255;29;20577;-88
2023/01/04 12:18:37;;;;;;;1.80;0.90;;;9.10;99.90;;;;;;4949071;29;20449;-82
2023/01/04 12:21:04;;;;;;;1.83;1.30;;;9.20;99.90;;;;;;4930936;29;20441;-82
2023/01/04 12:23:33;;;;;;;1.00;0.80;;;9.20;99.90;;;;;;4931992;29;20544;-88
2023/01/04 12:26:01;;;;;;;1.30;1.00;;;9.30;99.90;;;;;;4934551;29;20453;-85
2023/01/04 12:28:30;;;;;;;2.13;1.10;;;9.30;99.90;;;;;;4928727;29;20555;-84
2023/01/04 12:31:27;;;;;;;3.30;1.00;;;9.40;99.90;;;;;;4930032;29;20456;-81
2023/01/04 12:33:55;;;;;;;2.83;1.17;;;9.50;99.90;;;;;;4933834;29;20509;-83
2023/01/04 12:36:56;;;;;;;1.10;0.90;;;9.50;99.90;;;;;;4950697;29;20504;-87
2023/01/04 12:39:40;;;;;;;1.90;1.07;;;9.50;99.90;;;;;;4947138;29;20471;-81
2023/01/04 12:42:14;;;;;;;1.20;0.90;;;9.50;99.90;;;;;;4947260;29;20456;-82
2023/01/04 12:45:17;;;;;;;1.33;1.00;;;9.60;99.90;;;;;;4946937;29;20519;-85
2023/01/04 12:50:31;;;;;;;0.80;0.70;;;9.70;99.90;;;;;;4945057;29;20548;-82
2023/01/04 12:53:47;;;;;;;2.20;1.20;;;9.70;99.90;;;;;;4949594;29;20455;-86
2023/01/04 12:56:14;;;;;;;1.10;1.00;;;9.70;99.90;;;;;;4950232;29;20480;-81
2023/01/04 12:58:57;;;;;;;1.27;0.90;;;9.70;99.90;;;;;;4953178;29;20462;-81
2023/01/04 13:01:26;;;;;;;1.07;0.80;;;9.70;99.90;;;;;;4933031;29;20511;-89
2023/01/04 13:03:58;;;;;;;1.00;0.80;;;9.70;99.90;;;;;;4941336;29;20520;-91
2023/01/04 13:06:28;;;;;;;1.67;1.10;;;9.70;99.90;;;;;;4940134;29;20508;-91
2023/01/04 13:08:56;;;;;;;1.00;0.90;;;9.80;99.90;;;;;;4925998;29;20563;-90
2023/01/04 13:11:43;;;;;;;0.90;0.80;;;9.80;99.90;;;;;;4926882;29;20465;-88
2023/01/04 13:14:17;;;;;;;3.00;1.10;;;9.90;99.90;;;;;;4927586;29;20471;-85
2023/01/04 13:16:51;;;;;;;1.10;0.90;;;9.90;99.90;;;;;;4930272;29;20944;-88
2023/01/04 13:19:21;;;;;;;1.10;0.87;;;10.00;99.90;;;;;;4922626;29;20449;-88
2023/01/04 13:21:50;;;;;;;1.00;0.90;;;10.10;99.90;;;;;;4922138;29;21131;-85
2023/01/04 13:24:22;;;;;;;1.00;0.90;;;10.10;99.90;;;;;;4931270;29;20511;-89
2023/01/04 13:26:50;;;;;;;1.50;1.20;;;10.10;99.90;;;;;;4943531;29;20452;-88
2023/01/04 13:29:20;;;;;;;0.83;0.83;;;10.00;99.90;;;;;;4944652;29;20498;-89
2023/01/04 13:31:56;;;;;;;1.10;1.00;;;10.00;99.90;;;;;;4940571;29;20452;-90
2023/01/04 13:34:27;;;;;;;1.53;1.27;;;10.00;99.90;;;;;;4947599;29;20515;-89
2023/01/04 13:36:59;;;;;;;2.83;1.10;;;10.00;99.90;;;;;;5001819;23;20578;-90
2023/01/04 13:39:28;;;;;;;0.90;0.90;;;9.60;99.90;;;;;;4948270;29;20521;-87
2023/01/04 13:41:57;;;;;;;1.20;1.10;;;10.00;99.90;;;;;;4936961;29;20476;-84
2023/01/04 13:44:38;;;;;;;1.00;0.90;;;9.90;99.90;;;;;;4955205;29;20515;-82
2023/01/04 13:47:07;;;;;;;1.10;0.97;;;10.00;99.90;;;;;;4952153;29;20519;-86
2023/01/04 13:49:38;;;;;;;0.80;0.80;;;10.10;99.90;;;;;;5064736;23;20474;-88
2023/01/04 13:52:20;;;;;;;2.87;0.90;;;9.70;99.90;;;;;;4966774;23;20476;-92
2023/01/04 13:57:20;;;;;;;1.07;0.90;;;10.10;99.90;;;;;;4941894;29;20467;-85
2023/01/04 13:59:48;;;;;;;2.53;1.03;;;10.20;99.90;;;;;;4936146;29;20471;-79
2023/01/04 14:02:17;;;;;;;2.90;1.13;;;10.10;99.90;;;;;;4932144;29;20444;-79
2023/01/04 14:04:45;;;;;;;3.30;1.20;;;10.10;99.90;;;;;;4930271;29;20933;-84
2023/01/04 14:07:12;;;;;;;1.10;0.90;;;10.10;99.90;;;;;;4934133;29;20842;-82
2023/01/04 14:09:45;;;;;;;1.63;0.90;;;10.10;99.90;;;;;;4933064;29;20502;-81
2023/01/04 14:12:16;;;;;;;2.30;1.10;;;10.10;99.90;;;;;;4933288;29;20493;-82
2023/01/04 14:14:51;;;;;;;1.73;1.10;;;10.00;99.90;;;;;;4933647;29;20474;-80
2023/01/04 14:17:26;;;;;;;0.90;0.80;;;10.10;99.90;;;;;;4928009;29;20472;-87
2023/01/04 14:19:55;;;;;;;1.63;1.00;;;10.10;99.90;;;;;;4924722;29;20451;-84
2023/01/04 14:22:51;;;;;;;3.87;1.00;;;10.20;99.90;;;;;;4932168;29;20462;-83
2023/01/04 14:25:54;;;;;;;1.10;1.00;;;10.20;99.90;;;;;;4920386;29;20484;-84
2023/01/04 14:28:42;;;;;;;1.00;0.90;;;10.10;99.90;;;;;;4927515;29;20843;-89
2023/01/04 14:31:20;;;;;;;1.00;0.90;;;10.20;99.90;;;;;;4926562;29;20972;-80
2023/01/04 14:33:48;;;;;;;1.10;0.90;;;10.20;99.90;;;;;;4928103;29;20535;-80
2023/01/04 14:36:20;;;;;;;1.37;1.10;;;10.20;99.90;;;;;;4928675;29;20805;-74
2023/01/04 14:39:08;;;;;;;1.63;1.00;;;10.20;99.90;;;;;;4919368;29;20534;-72
2023/01/04 14:41:36;;;;;;;1.03;0.80;;;10.20;99.90;;;;;;4907629;29;20464;-74
2023/01/04 14:44:10;;;;;;;1.50;0.90;;;10.20;99.90;;;;;;4920413;29;20448;-74
2023/01/04 14:46:40;;;;;;;1.13;1.00;;;10.20;99.90;;;;;;4919784;29;20457;-77
2023/01/04 14:49:07;;;;;;;1.90;1.00;;;10.30;99.90;;;;;;4920998;29;20515;-73
2023/01/04 14:51:37;;;;;;;1.23;0.90;;;10.20;99.90;;;;;;4918932;29;20494;-74
2023/01/04 14:54:05;;;;;;;1.10;1.00;;;10.20;99.90;;;;;;4920406;29;20925;-74
2023/01/04 14:56:32;;;;;;;1.00;0.80;;;10.30;99.90;;;;;;4919343;29;20539;-74
2023/01/04 14:58:58;;;;;;;3.37;1.20;;;10.20;99.90;;;;;;4921180;29;20452;-72
2023/01/04 15:01:25;;;;;;;1.37;1.10;;;10.20;99.90;;;;;;4919523;29;20437;-79
2023/01/04 15:03:53;;;;;;;2.03;0.90;;;10.30;99.90;;;;;;4919573;29;20971;-77
2023/01/04 15:06:20;;;;;;;6.00;1.23;;;10.20;99.90;;;;;;4920362;29;20455;-77